Terminal Aerodrome Forecast
Issued by NWS Tulsa, OK

Home | Current Version | Previous Version | Text Only | Print | Product List | Glossary On
Versions: 1 2 3 4 5 6 7 8 9 10 11 12 13 14 15 16 17
000
FTUS44 KTSA 201700
TAFFSM
TAF
KFSM 201724Z 2018/2118 21008KT P6SM SCT100
     FM210300 13003KT P6SM SCT250
     FM210600 08005KT P6SM SCT250
     FM211500 19008KT P6SM SCT250=

USA.gov is the U.S. government's official web portal to all federal, state and local government web resources and services.